Bakerton, West Virginia
Current Conditions -  °F | °C
As of 8:53 AM on Friday 31 Oct 2014 (Local Time) from KMRB Reporting Station
Overcast Overcast  
Wind Chill: 43°   Ceiling: 5500
Heat Index: 43°   Visibility: 10mi
Dew Point: 36°   Wind: 3mph
Humidity: 76%   Direction: 170°S
Pressure: 30"   Gusts: NA
Location:  39.36°N, 77.76°W
Report Text: KMRB 311253Z 17003KT 10SM OVC055 06/02 A3000 RMK AO2 SLP159 T00610022
Loading
Personal Weather Stations






























Interactive Weather Map
Tropical Storm Tracking
New forecast layout! Learn more

10-Day Weather Forecast

Advertisements
Track Severe Weather on mobile